sensor_id;sensor_type;location;lat;lon;timestamp;P1;durP1;ratioP1;P2;durP2;ratioP2
24483;SDS011;12643;51.620;7.548;2023-02-08T00:01:16;35.55;;;19.63;;
24483;SDS011;12643;51.620;7.548;2023-02-08T00:03:46;36.78;;;19.70;;
24483;SDS011;12643;51.620;7.548;2023-02-08T00:06:14;35.45;;;19.83;;
24483;SDS011;12643;51.620;7.548;2023-02-08T00:08:45;31.95;;;18.05;;
24483;SDS011;12643;51.620;7.548;2023-02-08T00:11:13;35.05;;;19.85;;
24483;SDS011;12643;51.620;7.548;2023-02-08T00:13:41;34.25;;;19.52;;
24483;SDS011;12643;51.620;7.548;2023-02-08T00:16:11;35.78;;;20.67;;
24483;SDS011;12643;51.620;7.548;2023-02-08T00:18:42;34.13;;;19.33;;
24483;SDS011;12643;51.620;7.548;2023-02-08T00:21:11;36.08;;;20.00;;
24483;SDS011;12643;51.620;7.548;2023-02-08T00:23:40;39.72;;;20.52;;
24483;SDS011;12643;51.620;7.548;2023-02-08T00:26:12;29.65;;;17.77;;
24483;SDS011;12643;51.620;7.548;2023-02-08T00:28:41;32.77;;;18.60;;
24483;SDS011;12643;51.620;7.548;2023-02-08T00:31:09;37.42;;;19.38;;
24483;SDS011;12643;51.620;7.548;2023-02-08T00:33:37;30.27;;;16.90;;
24483;SDS011;12643;51.620;7.548;2023-02-08T00:36:07;31.92;;;18.75;;
24483;SDS011;12643;51.620;7.548;2023-02-08T00:38:36;30.75;;;18.40;;
24483;SDS011;12643;51.620;7.548;2023-02-08T00:41:04;38.88;;;19.80;;
24483;SDS011;12643;51.620;7.548;2023-02-08T00:43:34;33.90;;;18.33;;
24483;SDS011;12643;51.620;7.548;2023-02-08T00:46:01;37.78;;;19.77;;
24483;SDS011;12643;51.620;7.548;2023-02-08T00:48:30;33.83;;;19.02;;
24483;SDS011;12643;51.620;7.548;2023-02-08T00:50:59;35.70;;;19.58;;
24483;SDS011;12643;51.620;7.548;2023-02-08T00:53:28;37.35;;;20.23;;
24483;SDS011;12643;51.620;7.548;2023-02-08T00:55:57;36.70;;;17.77;;
24483;SDS011;12643;51.620;7.548;2023-02-08T00:58:25;32.25;;;18.10;;
24483;SDS011;12643;51.620;7.548;2023-02-08T01:00:55;32.30;;;17.17;;
24483;SDS011;12643;51.620;7.548;2023-02-08T01:03:23;29.02;;;17.00;;
24483;SDS011;12643;51.620;7.548;2023-02-08T01:05:51;32.90;;;18.90;;
24483;SDS011;12643;51.620;7.548;2023-02-08T01:08:20;36.67;;;18.20;;
24483;SDS011;12643;51.620;7.548;2023-02-08T01:10:48;32.20;;;16.63;;
24483;SDS011;12643;51.620;7.548;2023-02-08T01:13:16;32.80;;;18.55;;
24483;SDS011;12643;51.620;7.548;2023-02-08T01:15:44;28.67;;;15.82;;
24483;SDS011;12643;51.620;7.548;2023-02-08T01:18:14;27.80;;;15.80;;
24483;SDS011;12643;51.620;7.548;2023-02-08T01:20:42;32.00;;;16.75;;
24483;SDS011;12643;51.620;7.548;2023-02-08T01:23:10;31.52;;;16.92;;
24483;SDS011;12643;51.620;7.548;2023-02-08T01:25:37;33.55;;;17.48;;
24483;SDS011;12643;51.620;7.548;2023-02-08T01:28:06;29.48;;;16.48;;
24483;SDS011;12643;51.620;7.548;2023-02-08T01:30:34;35.63;;;18.40;;
24483;SDS011;12643;51.620;7.548;2023-02-08T01:33:03;28.33;;;16.70;;
24483;SDS011;12643;51.620;7.548;2023-02-08T01:35:33;30.48;;;16.80;;
24483;SDS011;12643;51.620;7.548;2023-02-08T01:38:01;28.92;;;16.35;;
24483;SDS011;12643;51.620;7.548;2023-02-08T01:40:29;28.35;;;16.95;;
24483;SDS011;12643;51.620;7.548;2023-02-08T01:42:57;31.60;;;18.38;;
24483;SDS011;12643;51.620;7.548;2023-02-08T01:45:25;30.98;;;17.50;;
24483;SDS011;12643;51.620;7.548;2023-02-08T01:48:05;30.65;;;17.45;;
24483;SDS011;12643;51.620;7.548;2023-02-08T01:50:57;31.88;;;15.80;;
24483;SDS011;12643;51.620;7.548;2023-02-08T01:53:27;28.33;;;15.77;;
24483;SDS011;12643;51.620;7.548;2023-02-08T01:55:57;30.83;;;17.58;;
24483;SDS011;12643;51.620;7.548;2023-02-08T01:58:27;34.13;;;18.77;;
24483;SDS011;12643;51.620;7.548;2023-02-08T02:00:57;32.90;;;17.88;;
24483;SDS011;12643;51.620;7.548;2023-02-08T02:03:25;39.85;;;20.40;;
24483;SDS011;12643;51.620;7.548;2023-02-08T02:06:00;31.33;;;17.83;;
24483;SDS011;12643;51.620;7.548;2023-02-08T02:08:29;34.13;;;18.17;;
24483;SDS011;12643;51.620;7.548;2023-02-08T02:10:57;37.42;;;18.98;;
24483;SDS011;12643;51.620;7.548;2023-02-08T02:13:25;38.42;;;19.80;;
24483;SDS011;12643;51.620;7.548;2023-02-08T02:15:54;38.05;;;21.13;;
24483;SDS011;12643;51.620;7.548;2023-02-08T02:18:23;37.97;;;22.23;;
24483;SDS011;12643;51.620;7.548;2023-02-08T02:21:05;45.15;;;22.08;;
24483;SDS011;12643;51.620;7.548;2023-02-08T02:24:04;33.83;;;18.73;;
24483;SDS011;12643;51.620;7.548;2023-02-08T02:26:52;37.72;;;20.52;;
24483;SDS011;12643;51.620;7.548;2023-02-08T02:29:48;39.30;;;21.08;;
24483;SDS011;12643;51.620;7.548;2023-02-08T02:32:33;41.38;;;22.05;;
24483;SDS011;12643;51.620;7.548;2023-02-08T02:35:11;34.53;;;19.35;;
24483;SDS011;12643;51.620;7.548;2023-02-08T02:37:47;36.03;;;19.40;;
24483;SDS011;12643;51.620;7.548;2023-02-08T02:40:23;35.60;;;19.75;;
24483;SDS011;12643;51.620;7.548;2023-02-08T02:42:58;39.28;;;19.85;;
24483;SDS011;12643;51.620;7.548;2023-02-08T02:45:52;35.25;;;19.63;;
24483;SDS011;12643;51.620;7.548;2023-02-08T02:48:29;37.75;;;19.55;;
24483;SDS011;12643;51.620;7.548;2023-02-08T02:51:02;32.90;;;19.45;;
24483;SDS011;12643;51.620;7.548;2023-02-08T02:53:36;45.13;;;23.67;;
24483;SDS011;12643;51.620;7.548;2023-02-08T02:56:11;44.00;;;20.42;;
24483;SDS011;12643;51.620;7.548;2023-02-08T02:58:42;35.42;;;20.67;;
24483;SDS011;12643;51.620;7.548;2023-02-08T03:01:11;40.85;;;21.83;;
24483;SDS011;12643;51.620;7.548;2023-02-08T03:03:41;41.88;;;23.23;;
24483;SDS011;12643;51.620;7.548;2023-02-08T03:06:09;38.60;;;21.13;;
24483;SDS011;12643;51.620;7.548;2023-02-08T03:08:51;39.60;;;20.13;;
24483;SDS011;12643;51.620;7.548;2023-02-08T03:11:30;47.25;;;23.02;;
24483;SDS011;12643;51.620;7.548;2023-02-08T03:14:08;46.85;;;23.88;;
24483;SDS011;12643;51.620;7.548;2023-02-08T03:16:57;40.53;;;20.75;;
24483;SDS011;12643;51.620;7.548;2023-02-08T03:19:48;42.42;;;21.27;;
24483;SDS011;12643;51.620;7.548;2023-02-08T03:22:23;45.08;;;23.95;;
24483;SDS011;12643;51.620;7.548;2023-02-08T03:24:55;39.85;;;21.02;;
24483;SDS011;12643;51.620;7.548;2023-02-08T03:27:30;38.53;;;22.17;;
24483;SDS011;12643;51.620;7.548;2023-02-08T03:30:02;42.58;;;22.88;;
24483;SDS011;12643;51.620;7.548;2023-02-08T03:32:37;44.05;;;22.67;;
24483;SDS011;12643;51.620;7.548;2023-02-08T03:35:11;41.30;;;22.90;;
24483;SDS011;12643;51.620;7.548;2023-02-08T03:37:44;43.03;;;22.08;;
24483;SDS011;12643;51.620;7.548;2023-02-08T03:40:16;44.40;;;23.88;;
24483;SDS011;12643;51.620;7.548;2023-02-08T03:42:46;38.38;;;19.70;;
24483;SDS011;12643;51.620;7.548;2023-02-08T03:45:17;46.80;;;22.85;;
24483;SDS011;12643;51.620;7.548;2023-02-08T03:47:48;43.45;;;23.95;;
24483;SDS011;12643;51.620;7.548;2023-02-08T03:50:19;47.78;;;23.52;;
24483;SDS011;12643;51.620;7.548;2023-02-08T03:55:19;43.70;;;21.98;;
24483;SDS011;12643;51.620;7.548;2023-02-08T03:57:51;42.30;;;22.30;;
24483;SDS011;12643;51.620;7.548;2023-02-08T04:00:22;42.00;;;22.35;;
24483;SDS011;12643;51.620;7.548;2023-02-08T04:02:51;44.03;;;23.63;;
24483;SDS011;12643;51.620;7.548;2023-02-08T04:05:23;46.45;;;24.92;;
24483;SDS011;12643;51.620;7.548;2023-02-08T04:07:52;51.33;;;24.60;;
24483;SDS011;12643;51.620;7.548;2023-02-08T04:10:19;43.15;;;23.92;;
24483;SDS011;12643;51.620;7.548;2023-02-08T04:12:48;47.08;;;26.10;;
24483;SDS011;12643;51.620;7.548;2023-02-08T04:15:16;39.28;;;23.50;;
24483;SDS011;12643;51.620;7.548;2023-02-08T04:17:44;41.92;;;24.90;;
24483;SDS011;12643;51.620;7.548;2023-02-08T04:20:11;47.80;;;24.25;;
24483;SDS011;12643;51.620;7.548;2023-02-08T04:22:41;46.75;;;24.10;;
24483;SDS011;12643;51.620;7.548;2023-02-08T04:25:09;43.10;;;24.70;;
24483;SDS011;12643;51.620;7.548;2023-02-08T04:27:38;51.90;;;24.63;;
24483;SDS011;12643;51.620;7.548;2023-02-08T04:30:06;44.25;;;24.30;;
24483;SDS011;12643;51.620;7.548;2023-02-08T04:32:34;41.90;;;22.27;;
24483;SDS011;12643;51.620;7.548;2023-02-08T04:35:02;49.63;;;24.70;;
24483;SDS011;12643;51.620;7.548;2023-02-08T04:37:31;41.78;;;23.27;;
24483;SDS011;12643;51.620;7.548;2023-02-08T04:40:01;42.17;;;22.30;;
24483;SDS011;12643;51.620;7.548;2023-02-08T04:42:29;42.92;;;23.05;;
24483;SDS011;12643;51.620;7.548;2023-02-08T04:44:57;44.55;;;22.65;;
24483;SDS011;12643;51.620;7.548;2023-02-08T04:47:24;41.13;;;22.45;;
24483;SDS011;12643;51.620;7.548;2023-02-08T04:49:52;40.42;;;22.85;;
24483;SDS011;12643;51.620;7.548;2023-02-08T04:52:20;39.53;;;22.75;;
24483;SDS011;12643;51.620;7.548;2023-02-08T04:54:48;41.03;;;23.60;;
24483;SDS011;12643;51.620;7.548;2023-02-08T04:57:18;38.72;;;22.77;;
24483;SDS011;12643;51.620;7.548;2023-02-08T04:59:45;40.13;;;22.17;;
24483;SDS011;12643;51.620;7.548;2023-02-08T05:02:13;35.47;;;20.50;;
24483;SDS011;12643;51.620;7.548;2023-02-08T05:04:41;42.60;;;22.05;;
24483;SDS011;12643;51.620;7.548;2023-02-08T05:07:09;42.60;;;21.77;;
24483;SDS011;12643;51.620;7.548;2023-02-08T05:09:37;43.25;;;22.58;;
24483;SDS011;12643;51.620;7.548;2023-02-08T05:12:10;41.63;;;21.38;;
24483;SDS011;12643;51.620;7.548;2023-02-08T05:14:40;39.78;;;22.13;;
24483;SDS011;12643;51.620;7.548;2023-02-08T05:17:07;44.03;;;21.88;;
24483;SDS011;12643;51.620;7.548;2023-02-08T05:19:35;46.92;;;22.58;;
24483;SDS011;12643;51.620;7.548;2023-02-08T05:22:03;46.25;;;22.75;;
24483;SDS011;12643;51.620;7.548;2023-02-08T05:24:32;42.92;;;19.85;;
24483;SDS011;12643;51.620;7.548;2023-02-08T05:27:00;40.92;;;21.52;;
24483;SDS011;12643;51.620;7.548;2023-02-08T05:29:28;39.92;;;19.98;;
24483;SDS011;12643;51.620;7.548;2023-02-08T05:31:58;40.15;;;20.77;;
24483;SDS011;12643;51.620;7.548;2023-02-08T05:34:26;45.22;;;21.73;;
24483;SDS011;12643;51.620;7.548;2023-02-08T05:36:53;37.60;;;19.80;;
24483;SDS011;12643;51.620;7.548;2023-02-08T05:39:21;38.03;;;19.98;;
24483;SDS011;12643;51.620;7.548;2023-02-08T05:41:49;41.58;;;20.58;;
24483;SDS011;12643;51.620;7.548;2023-02-08T05:44:18;45.03;;;20.77;;
24483;SDS011;12643;51.620;7.548;2023-02-08T05:46:46;40.72;;;20.50;;
24483;SDS011;12643;51.620;7.548;2023-02-08T05:49:15;47.45;;;22.17;;
24483;SDS011;12643;51.620;7.548;2023-02-08T05:51:43;54.33;;;25.42;;
24483;SDS011;12643;51.620;7.548;2023-02-08T05:54:11;48.97;;;23.40;;
24483;SDS011;12643;51.620;7.548;2023-02-08T05:56:39;56.70;;;24.20;;
24483;SDS011;12643;51.620;7.548;2023-02-08T05:59:08;47.05;;;24.45;;
24483;SDS011;12643;51.620;7.548;2023-02-08T06:01:36;61.58;;;27.30;;
24483;SDS011;12643;51.620;7.548;2023-02-08T06:04:04;47.83;;;23.38;;
24483;SDS011;12643;51.620;7.548;2023-02-08T06:06:34;51.30;;;24.35;;
24483;SDS011;12643;51.620;7.548;2023-02-08T06:09:02;45.63;;;22.80;;
24483;SDS011;12643;51.620;7.548;2023-02-08T06:11:30;42.15;;;20.95;;
24483;SDS011;12643;51.620;7.548;2023-02-08T06:13:58;39.95;;;20.83;;
24483;SDS011;12643;51.620;7.548;2023-02-08T06:16:26;44.05;;;22.30;;
24483;SDS011;12643;51.620;7.548;2023-02-08T06:18:54;39.85;;;21.45;;
24483;SDS011;12643;51.620;7.548;2023-02-08T06:21:23;42.80;;;22.45;;
24483;SDS011;12643;51.620;7.548;2023-02-08T06:23:54;39.85;;;21.42;;
24483;SDS011;12643;51.620;7.548;2023-02-08T06:26:22;36.50;;;19.95;;
24483;SDS011;12643;51.620;7.548;2023-02-08T06:28:51;41.22;;;21.05;;
24483;SDS011;12643;51.620;7.548;2023-02-08T06:31:22;50.30;;;24.67;;
24483;SDS011;12643;51.620;7.548;2023-02-08T06:34:03;45.28;;;23.55;;
24483;SDS011;12643;51.620;7.548;2023-02-08T06:36:31;47.20;;;23.50;;
24483;SDS011;12643;51.620;7.548;2023-02-08T06:39:01;40.83;;;21.50;;
24483;SDS011;12643;51.620;7.548;2023-02-08T06:41:29;42.90;;;22.25;;
24483;SDS011;12643;51.620;7.548;2023-02-08T06:43:56;41.63;;;22.70;;
24483;SDS011;12643;51.620;7.548;2023-02-08T06:46:27;52.47;;;26.40;;
24483;SDS011;12643;51.620;7.548;2023-02-08T06:48:55;54.92;;;26.23;;
24483;SDS011;12643;51.620;7.548;2023-02-08T06:51:24;44.42;;;23.33;;
24483;SDS011;12643;51.620;7.548;2023-02-08T06:53:52;48.75;;;25.20;;
24483;SDS011;12643;51.620;7.548;2023-02-08T06:56:22;47.45;;;24.55;;
24483;SDS011;12643;51.620;7.548;2023-02-08T06:58:50;47.70;;;24.80;;
24483;SDS011;12643;51.620;7.548;2023-02-08T07:01:19;47.00;;;24.10;;
24483;SDS011;12643;51.620;7.548;2023-02-08T07:03:47;51.47;;;23.83;;
24483;SDS011;12643;51.620;7.548;2023-02-08T07:06:16;44.05;;;21.52;;
24483;SDS011;12643;51.620;7.548;2023-02-08T07:08:47;42.33;;;22.88;;
24483;SDS011;12643;51.620;7.548;2023-02-08T07:11:18;39.03;;;21.13;;
24483;SDS011;12643;51.620;7.548;2023-02-08T07:16:17;41.28;;;19.40;;
24483;SDS011;12643;51.620;7.548;2023-02-08T07:18:48;38.08;;;18.33;;
24483;SDS011;12643;51.620;7.548;2023-02-08T07:21:16;37.90;;;18.33;;
24483;SDS011;12643;51.620;7.548;2023-02-08T07:23:44;38.28;;;19.85;;
24483;SDS011;12643;51.620;7.548;2023-02-08T07:26:12;33.22;;;18.45;;
24483;SDS011;12643;51.620;7.548;2023-02-08T07:28:41;40.58;;;20.05;;
24483;SDS011;12643;51.620;7.548;2023-02-08T07:31:11;33.85;;;18.50;;
24483;SDS011;12643;51.620;7.548;2023-02-08T07:33:40;40.05;;;20.17;;
24483;SDS011;12643;51.620;7.548;2023-02-08T07:36:09;37.75;;;21.23;;
24483;SDS011;12643;51.620;7.548;2023-02-08T07:38:37;41.03;;;20.35;;
24483;SDS011;12643;51.620;7.548;2023-02-08T07:41:06;42.42;;;20.40;;
24483;SDS011;12643;51.620;7.548;2023-02-08T07:46:08;74.45;;;31.13;;
24483;SDS011;12643;51.620;7.548;2023-02-08T07:48:41;64.32;;;27.15;;
24483;SDS011;12643;51.620;7.548;2023-02-08T07:51:09;52.30;;;24.33;;
24483;SDS011;12643;51.620;7.548;2023-02-08T07:53:40;51.75;;;24.13;;
24483;SDS011;12643;51.620;7.548;2023-02-08T07:56:09;44.28;;;21.52;;
24483;SDS011;12643;51.620;7.548;2023-02-08T07:58:37;45.67;;;21.92;;
24483;SDS011;12643;51.620;7.548;2023-02-08T08:01:06;42.60;;;22.40;;
24483;SDS011;12643;51.620;7.548;2023-02-08T08:03:38;40.72;;;21.33;;
24483;SDS011;12643;51.620;7.548;2023-02-08T08:06:05;42.33;;;21.20;;
24483;SDS011;12643;51.620;7.548;2023-02-08T08:08:33;47.53;;;23.33;;
24483;SDS011;12643;51.620;7.548;2023-02-08T08:11:01;42.45;;;20.50;;
24483;SDS011;12643;51.620;7.548;2023-02-08T08:13:29;42.88;;;22.98;;
24483;SDS011;12643;51.620;7.548;2023-02-08T08:15:59;54.70;;;21.83;;
24483;SDS011;12643;51.620;7.548;2023-02-08T08:18:27;50.92;;;25.27;;
24483;SDS011;12643;51.620;7.548;2023-02-08T08:21:01;51.70;;;22.52;;
24483;SDS011;12643;51.620;7.548;2023-02-08T08:23:29;53.38;;;23.90;;
24483;SDS011;12643;51.620;7.548;2023-02-08T08:26:04;51.45;;;26.02;;
24483;SDS011;12643;51.620;7.548;2023-02-08T08:28:33;51.13;;;26.30;;
24483;SDS011;12643;51.620;7.548;2023-02-08T08:31:02;49.30;;;25.40;;
24483;SDS011;12643;51.620;7.548;2023-02-08T08:33:35;59.35;;;27.77;;
24483;SDS011;12643;51.620;7.548;2023-02-08T08:36:05;57.17;;;26.63;;
24483;SDS011;12643;51.620;7.548;2023-02-08T08:38:35;52.50;;;26.00;;
24483;SDS011;12643;51.620;7.548;2023-02-08T08:41:05;56.40;;;28.67;;
24483;SDS011;12643;51.620;7.548;2023-02-08T08:43:34;52.22;;;25.77;;
24483;SDS011;12643;51.620;7.548;2023-02-08T08:46:03;51.25;;;24.42;;
24483;SDS011;12643;51.620;7.548;2023-02-08T08:48:32;47.00;;;24.15;;
24483;SDS011;12643;51.620;7.548;2023-02-08T08:51:00;46.83;;;23.98;;
24483;SDS011;12643;51.620;7.548;2023-02-08T08:53:29;45.03;;;23.50;;
24483;SDS011;12643;51.620;7.548;2023-02-08T08:55:57;45.05;;;24.88;;
24483;SDS011;12643;51.620;7.548;2023-02-08T08:58:25;47.97;;;23.92;;
24483;SDS011;12643;51.620;7.548;2023-02-08T09:00:54;44.25;;;24.48;;
24483;SDS011;12643;51.620;7.548;2023-02-08T09:03:23;47.85;;;24.55;;
24483;SDS011;12643;51.620;7.548;2023-02-08T09:05:50;51.10;;;25.55;;
24483;SDS011;12643;51.620;7.548;2023-02-08T09:08:19;45.22;;;23.25;;
24483;SDS011;12643;51.620;7.548;2023-02-08T09:10:49;43.47;;;22.27;;
24483;SDS011;12643;51.620;7.548;2023-02-08T09:13:19;43.85;;;22.85;;
24483;SDS011;12643;51.620;7.548;2023-02-08T09:15:47;39.97;;;22.45;;
24483;SDS011;12643;51.620;7.548;2023-02-08T09:18:16;35.83;;;20.48;;
24483;SDS011;12643;51.620;7.548;2023-02-08T09:20:44;34.60;;;20.60;;
24483;SDS011;12643;51.620;7.548;2023-02-08T09:23:12;42.75;;;22.00;;
24483;SDS011;12643;51.620;7.548;2023-02-08T09:25:40;44.83;;;20.98;;
24483;SDS011;12643;51.620;7.548;2023-02-08T09:28:09;52.40;;;25.88;;
24483;SDS011;12643;51.620;7.548;2023-02-08T09:30:37;38.03;;;19.75;;
24483;SDS011;12643;51.620;7.548;2023-02-08T09:33:05;35.30;;;19.08;;
24483;SDS011;12643;51.620;7.548;2023-02-08T09:35:33;40.50;;;21.13;;
24483;SDS011;12643;51.620;7.548;2023-02-08T09:38:02;38.60;;;20.13;;
24483;SDS011;12643;51.620;7.548;2023-02-08T09:40:31;32.97;;;19.67;;
24483;SDS011;12643;51.620;7.548;2023-02-08T09:43:07;32.28;;;18.33;;
24483;SDS011;12643;51.620;7.548;2023-02-08T09:45:43;37.38;;;19.30;;
24483;SDS011;12643;51.620;7.548;2023-02-08T09:48:17;31.48;;;18.42;;
24483;SDS011;12643;51.620;7.548;2023-02-08T09:50:49;30.48;;;17.23;;
24483;SDS011;12643;51.620;7.548;2023-02-08T09:53:22;33.03;;;17.90;;
24483;SDS011;12643;51.620;7.548;2023-02-08T09:56:00;31.60;;;17.75;;
24483;SDS011;12643;51.620;7.548;2023-02-08T09:58:34;34.55;;;18.88;;
24483;SDS011;12643;51.620;7.548;2023-02-08T10:01:05;38.35;;;18.48;;
24483;SDS011;12643;51.620;7.548;2023-02-08T10:03:39;33.22;;;17.90;;
24483;SDS011;12643;51.620;7.548;2023-02-08T10:06:10;34.13;;;16.25;;
24483;SDS011;12643;51.620;7.548;2023-02-08T10:08:39;27.67;;;15.67;;
24483;SDS011;12643;51.620;7.548;2023-02-08T10:11:18;40.60;;;21.42;;
24483;SDS011;12643;51.620;7.548;2023-02-08T10:14:10;41.75;;;19.92;;
24483;SDS011;12643;51.620;7.548;2023-02-08T10:17:01;25.05;;;13.60;;
24483;SDS011;12643;51.620;7.548;2023-02-08T10:19:38;24.88;;;13.68;;
24483;SDS011;12643;51.620;7.548;2023-02-08T10:22:21;32.75;;;16.02;;
24483;SDS011;12643;51.620;7.548;2023-02-08T10:25:08;24.48;;;15.77;;
24483;SDS011;12643;51.620;7.548;2023-02-08T10:27:48;31.52;;;14.90;;
24483;SDS011;12643;51.620;7.548;2023-02-08T10:30:32;28.55;;;13.52;;
24483;SDS011;12643;51.620;7.548;2023-02-08T10:33:09;22.90;;;12.55;;
24483;SDS011;12643;51.620;7.548;2023-02-08T10:35:43;21.45;;;13.55;;
24483;SDS011;12643;51.620;7.548;2023-02-08T10:38:21;27.52;;;14.60;;
24483;SDS011;12643;51.620;7.548;2023-02-08T10:40:50;23.73;;;13.55;;
24483;SDS011;12643;51.620;7.548;2023-02-08T10:43:23;29.13;;;16.58;;
24483;SDS011;12643;51.620;7.548;2023-02-08T10:46:01;18.90;;;11.98;;
24483;SDS011;12643;51.620;7.548;2023-02-08T10:48:37;24.77;;;13.85;;
24483;SDS011;12643;51.620;7.548;2023-02-08T10:51:13;21.73;;;12.95;;
24483;SDS011;12643;51.620;7.548;2023-02-08T10:53:43;22.58;;;13.18;;
24483;SDS011;12643;51.620;7.548;2023-02-08T10:56:16;23.63;;;12.77;;
24483;SDS011;12643;51.620;7.548;2023-02-08T10:58:58;22.92;;;11.85;;
24483;SDS011;12643;51.620;7.548;2023-02-08T11:01:32;20.02;;;11.95;;
24483;SDS011;12643;51.620;7.548;2023-02-08T11:04:00;17.75;;;10.07;;
24483;SDS011;12643;51.620;7.548;2023-02-08T11:06:30;21.05;;;10.93;;
24483;SDS011;12643;51.620;7.548;2023-02-08T11:08:58;19.38;;;11.65;;
24483;SDS011;12643;51.620;7.548;2023-02-08T11:11:26;21.13;;;12.73;;
24483;SDS011;12643;51.620;7.548;2023-02-08T11:14:05;20.20;;;11.38;;
24483;SDS011;12643;51.620;7.548;2023-02-08T11:16:36;19.00;;;11.25;;
24483;SDS011;12643;51.620;7.548;2023-02-08T11:19:04;21.88;;;11.93;;
24483;SDS011;12643;51.620;7.548;2023-02-08T11:21:32;30.45;;;10.95;;
24483;SDS011;12643;51.620;7.548;2023-02-08T11:24:16;18.45;;;10.93;;
24483;SDS011;12643;51.620;7.548;2023-02-08T11:26:52;19.95;;;10.35;;
24483;SDS011;12643;51.620;7.548;2023-02-08T11:29:22;18.80;;;10.10;;
24483;SDS011;12643;51.620;7.548;2023-02-08T11:31:57;18.60;;;10.73;;
24483;SDS011;12643;51.620;7.548;2023-02-08T11:34:27;16.67;;;9.65;;
24483;SDS011;12643;51.620;7.548;2023-02-08T11:36:57;18.88;;;10.25;;
24483;SDS011;12643;51.620;7.548;2023-02-08T11:39:28;17.33;;;10.55;;
24483;SDS011;12643;51.620;7.548;2023-02-08T11:42:01;19.38;;;10.55;;
24483;SDS011;12643;51.620;7.548;2023-02-08T11:44:30;17.05;;;10.00;;
24483;SDS011;12643;51.620;7.548;2023-02-08T11:47:01;14.57;;;9.55;;
24483;SDS011;12643;51.620;7.548;2023-02-08T11:49:35;18.80;;;9.80;;
24483;SDS011;12643;51.620;7.548;2023-02-08T11:52:05;19.98;;;9.73;;
24483;SDS011;12643;51.620;7.548;2023-02-08T11:54:44;14.55;;;9.35;;
24483;SDS011;12643;51.620;7.548;2023-02-08T11:57:13;15.15;;;8.32;;
24483;SDS011;12643;51.620;7.548;2023-02-08T11:59:45;13.63;;;9.02;;
24483;SDS011;12643;51.620;7.548;2023-02-08T12:05:08;14.10;;;7.13;;
24483;SDS011;12643;51.620;7.548;2023-02-08T12:07:42;13.50;;;7.05;;
24483;SDS011;12643;51.620;7.548;2023-02-08T12:10:40;16.42;;;8.15;;
24483;SDS011;12643;51.620;7.548;2023-02-08T12:13:28;13.32;;;7.38;;
24483;SDS011;12643;51.620;7.548;2023-02-08T12:16:10;11.07;;;6.40;;
24483;SDS011;12643;51.620;7.548;2023-02-08T12:21:54;11.43;;;6.43;;
24483;SDS011;12643;51.620;7.548;2023-02-08T12:24:27;12.27;;;6.60;;
24483;SDS011;12643;51.620;7.548;2023-02-08T12:27:05;13.15;;;8.27;;
24483;SDS011;12643;51.620;7.548;2023-02-08T12:29:44;11.13;;;6.32;;
24483;SDS011;12643;51.620;7.548;2023-02-08T12:32:26;9.95;;;5.97;;
24483;SDS011;12643;51.620;7.548;2023-02-08T12:35:16;10.85;;;5.82;;
24483;SDS011;12643;51.620;7.548;2023-02-08T12:38:03;10.10;;;5.82;;
24483;SDS011;12643;51.620;7.548;2023-02-08T12:40:56;12.70;;;6.38;;
24483;SDS011;12643;51.620;7.548;2023-02-08T12:46:41;11.27;;;4.78;;
24483;SDS011;12643;51.620;7.548;2023-02-08T12:52:16;11.00;;;5.55;;
24483;SDS011;12643;51.620;7.548;2023-02-08T12:54:51;9.23;;;4.80;;
24483;SDS011;12643;51.620;7.548;2023-02-08T12:57:24;7.90;;;5.07;;
24483;SDS011;12643;51.620;7.548;2023-02-08T12:59:55;7.50;;;4.95;;
24483;SDS011;12643;51.620;7.548;2023-02-08T13:02:28;10.18;;;6.15;;
24483;SDS011;12643;51.620;7.548;2023-02-08T13:05:00;6.88;;;4.30;;
24483;SDS011;12643;51.620;7.548;2023-02-08T13:07:34;7.75;;;4.13;;
24483;SDS011;12643;51.620;7.548;2023-02-08T13:10:07;8.50;;;3.85;;
24483;SDS011;12643;51.620;7.548;2023-02-08T13:12:45;7.63;;;4.00;;
24483;SDS011;12643;51.620;7.548;2023-02-08T13:15:18;4.60;;;2.67;;
24483;SDS011;12643;51.620;7.548;2023-02-08T13:20:25;10.88;;;4.53;;
24483;SDS011;12643;51.620;7.548;2023-02-08T13:23:01;6.47;;;3.90;;
24483;SDS011;12643;51.620;7.548;2023-02-08T13:25:36;7.90;;;5.03;;
24483;SDS011;12643;51.620;7.548;2023-02-08T13:28:06;6.85;;;2.90;;
24483;SDS011;12643;51.620;7.548;2023-02-08T13:30:41;8.90;;;3.65;;
24483;SDS011;12643;51.620;7.548;2023-02-08T13:33:13;8.00;;;3.30;;
24483;SDS011;12643;51.620;7.548;2023-02-08T13:35:47;7.18;;;2.40;;
24483;SDS011;12643;51.620;7.548;2023-02-08T13:38:19;7.85;;;3.80;;
24483;SDS011;12643;51.620;7.548;2023-02-08T13:41:02;7.07;;;3.58;;
24483;SDS011;12643;51.620;7.548;2023-02-08T13:43:34;4.30;;;2.27;;
24483;SDS011;12643;51.620;7.548;2023-02-08T13:46:06;6.57;;;2.92;;
24483;SDS011;12643;51.620;7.548;2023-02-08T13:48:39;3.83;;;2.10;;
24483;SDS011;12643;51.620;7.548;2023-02-08T14:00:20;4.03;;;1.80;;
24483;SDS011;12643;51.620;7.548;2023-02-08T14:02:58;12.32;;;10.77;;
24483;SDS011;12643;51.620;7.548;2023-02-08T14:08:17;6.13;;;2.28;;
24483;SDS011;12643;51.620;7.548;2023-02-08T14:10:50;3.50;;;2.20;;
24483;SDS011;12643;51.620;7.548;2023-02-08T14:13:29;6.15;;;2.55;;
24483;SDS011;12643;51.620;7.548;2023-02-08T14:18:49;3.33;;;2.00;;
24483;SDS011;12643;51.620;7.548;2023-02-08T14:21:22;3.00;;;2.20;;
24483;SDS011;12643;51.620;7.548;2023-02-08T14:24:00;4.10;;;2.22;;
24483;SDS011;12643;51.620;7.548;2023-02-08T14:26:30;5.13;;;2.78;;
24483;SDS011;12643;51.620;7.548;2023-02-08T14:29:00;4.40;;;2.40;;
24483;SDS011;12643;51.620;7.548;2023-02-08T14:31:40;6.35;;;2.70;;
24483;SDS011;12643;51.620;7.548;2023-02-08T14:34:20;3.42;;;1.92;;
24483;SDS011;12643;51.620;7.548;2023-02-08T14:37:00;3.47;;;2.83;;
24483;SDS011;12643;51.620;7.548;2023-02-08T14:39:30;4.88;;;3.40;;
24483;SDS011;12643;51.620;7.548;2023-02-08T14:42:00;6.05;;;3.65;;
24483;SDS011;12643;51.620;7.548;2023-02-08T14:50:50;3.10;;;2.13;;
24483;SDS011;12643;51.620;7.548;2023-02-08T14:53:29;5.75;;;2.70;;
24483;SDS011;12643;51.620;7.548;2023-02-08T14:56:04;5.13;;;3.35;;
24483;SDS011;12643;51.620;7.548;2023-02-08T14:58:41;3.88;;;1.98;;
24483;SDS011;12643;51.620;7.548;2023-02-08T15:01:14;3.65;;;2.33;;
24483;SDS011;12643;51.620;7.548;2023-02-08T15:03:44;3.97;;;2.38;;
24483;SDS011;12643;51.620;7.548;2023-02-08T15:09:15;6.38;;;3.45;;
24483;SDS011;12643;51.620;7.548;2023-02-08T15:11:47;4.65;;;2.88;;
24483;SDS011;12643;51.620;7.548;2023-02-08T15:14:19;6.43;;;3.08;;
24483;SDS011;12643;51.620;7.548;2023-02-08T15:16:49;3.83;;;2.53;;
24483;SDS011;12643;51.620;7.548;2023-02-08T15:19:21;4.28;;;2.25;;
24483;SDS011;12643;51.620;7.548;2023-02-08T15:21:51;5.38;;;2.63;;
24483;SDS011;12643;51.620;7.548;2023-02-08T15:24:20;3.92;;;3.13;;
24483;SDS011;12643;51.620;7.548;2023-02-08T15:26:55;3.67;;;2.28;;
24483;SDS011;12643;51.620;7.548;2023-02-08T15:29:24;3.90;;;2.72;;
24483;SDS011;12643;51.620;7.548;2023-02-08T15:31:55;5.55;;;3.13;;
24483;SDS011;12643;51.620;7.548;2023-02-08T15:34:23;6.15;;;3.00;;
24483;SDS011;12643;51.620;7.548;2023-02-08T15:36:52;4.20;;;3.00;;
24483;SDS011;12643;51.620;7.548;2023-02-08T15:39:23;3.97;;;2.50;;